BCS4301 LOWL-EDDK
Flight info
| Callsign | BCS4301 |
|---|---|
| Flight time | N/A |
| Altitude | 40000 |
| Route | LIDSI DCT LAMSI L604 MASEK T841 ERNEP ERNEP1G |
| Aircraft | B738/M-SDGWYRI/LB1 |
Departure
| Time | 2026-04-30 22:37 |
|---|---|
| Airport | Linz-Hörsching Airport (LOWL) |
Arrival
| Time | N/A |
|---|---|
| Airport | Cologne Bonn Airport (EDDK) |
| Time | Latitude | Longitude | Altitude | Speed | Heading |
|---|---|---|---|---|---|
| 2026-04-30 22:13 | 48.23879 | 14.19128 | 989 ft | 0 kts | 267° |
| 2026-04-30 22:32 | 48.23879 | 14.19127 | 985 ft | 0 kts | 267° |
| 2026-04-30 22:32 | 48.23865 | 14.19082 | 991 ft | 5 kts | 212° |
| 2026-04-30 22:33 | 48.23753 | 14.19169 | 993 ft | 10 kts | 90° |
| 2026-04-30 22:33 | 48.23766 | 14.19497 | 985 ft | 16 kts | 88° |
| 2026-04-30 22:34 | 48.23548 | 14.19715 | 990 ft | 18 kts | 159° |
| 2026-04-30 22:35 | 48.23362 | 14.19905 | 987 ft | 17 kts | 91° |
| 2026-04-30 22:36 | 48.23403 | 14.20584 | 982 ft | 0 kts | 74° |
| 2026-04-30 22:36 | 48.23404 | 14.20614 | 980 ft | 6 kts | 103° |
| 2026-04-30 22:37 | 48.23355 | 14.19728 | 984 ft | 119 kts | 266° |
| 2026-04-30 22:37 | 48.23296 | 14.18126 | 1225 ft | 175 kts | 266° |
| 2026-04-30 22:37 | 48.23162 | 14.14463 | 3228 ft | 196 kts | 266° |
| 2026-04-30 22:38 | 48.22997 | 14.09703 | 3982 ft | 254 kts | 267° |
| 2026-04-30 22:38 | 48.22799 | 14.03985 | 5451 ft | 283 kts | 267° |
| 2026-04-30 22:39 | 48.22730 | 14.02028 | 5995 ft | 285 kts | 267° |
| 2026-04-30 22:39 | 48.22535 | 13.92064 | 9264 ft | 293 kts | 286° |
| 2026-04-30 22:40 | 48.27060 | 13.86054 | 10917 ft | 329 kts | 338° |
| 2026-04-30 22:41 | 48.32780 | 13.82043 | 13061 ft | 343 kts | 339° |
| 2026-04-30 22:41 | 48.37128 | 13.78937 | 14786 ft | 349 kts | 339° |
| 2026-04-30 22:42 | 48.46013 | 13.72473 | 17884 ft | 362 kts | 340° |
| 2026-04-30 22:43 | 48.50594 | 13.69120 | 19304 ft | 369 kts | 340° |
| 2026-04-30 22:43 | 48.55232 | 13.65715 | 20693 ft | 373 kts | 340° |
| 2026-04-30 22:44 | 48.59930 | 13.62261 | 21967 ft | 378 kts | 341° |
| 2026-04-30 22:45 | 48.68934 | 13.53064 | 23791 ft | 419 kts | 322° |
| 2026-04-30 22:45 | 48.73062 | 13.46759 | 24785 ft | 423 kts | 322° |
| 2026-04-30 22:46 | 48.77255 | 13.40410 | 25629 ft | 429 kts | 323° |
| 2026-04-30 22:47 | 48.85837 | 13.27478 | 27291 ft | 440 kts | 323° |
| 2026-04-30 22:47 | 48.90204 | 13.20874 | 28013 ft | 446 kts | 323° |
| 2026-04-30 22:48 | 48.94618 | 13.14169 | 28757 ft | 451 kts | 323° |
| 2026-04-30 22:49 | 49.01110 | 13.03851 | 30394 ft | 451 kts | 319° |
| 2026-04-30 22:49 | 49.07061 | 12.92485 | 30411 ft | 456 kts | 316° |
| 2026-04-30 22:51 | 49.18840 | 12.69964 | 30424 ft | 455 kts | 317° |
| 2026-04-30 22:52 | 49.24814 | 12.58601 | 30426 ft | 455 kts | 317° |
| 2026-04-30 22:53 | 49.32721 | 12.43472 | 30423 ft | 454 kts | 316° |
| 2026-04-30 22:53 | 49.38588 | 12.32192 | 30440 ft | 453 kts | 316° |
| 2026-04-30 22:55 | 49.48386 | 12.13248 | 30436 ft | 453 kts | 315° |
| 2026-04-30 22:56 | 49.56206 | 11.98027 | 30468 ft | 454 kts | 315° |
| 2026-04-30 22:57 | 49.65962 | 11.78916 | 30476 ft | 454 kts | 315° |
| 2026-04-30 22:58 | 49.73750 | 11.63561 | 30462 ft | 454 kts | 314° |
| 2026-04-30 22:59 | 49.85408 | 11.40407 | 30450 ft | 455 kts | 314° |